sensor_id;sensor_type;location;lat;lon;timestamp;P1;durP1;ratioP1;P2;durP2;ratioP2
36787;SDS011;22738;45.560;9.434;2022-10-22T00:05:40;34.30;;;13.73;;
36787;SDS011;22738;45.560;9.434;2022-10-22T00:12:22;25.10;;;13.52;;
36787;SDS011;22738;45.560;9.434;2022-10-22T00:19:05;27.17;;;14.30;;
36787;SDS011;22738;45.560;9.434;2022-10-22T00:25:48;28.80;;;15.30;;
36787;SDS011;22738;45.560;9.434;2022-10-22T00:32:29;25.33;;;13.18;;
36787;SDS011;22738;45.560;9.434;2022-10-22T00:39:10;31.10;;;14.55;;
36787;SDS011;22738;45.560;9.434;2022-10-22T00:45:52;28.55;;;13.77;;
36787;SDS011;22738;45.560;9.434;2022-10-22T00:52:34;24.85;;;13.07;;
36787;SDS011;22738;45.560;9.434;2022-10-22T00:59:16;25.40;;;12.50;;
36787;SDS011;22738;45.560;9.434;2022-10-22T01:05:58;27.70;;;13.70;;
36787;SDS011;22738;45.560;9.434;2022-10-22T01:20:01;26.23;;;13.73;;
36787;SDS011;22738;45.560;9.434;2022-10-22T01:34:34;24.65;;;13.13;;
36787;SDS011;22738;45.560;9.434;2022-10-22T01:41:18;23.48;;;12.07;;
36787;SDS011;22738;45.560;9.434;2022-10-22T01:48:03;23.63;;;11.13;;
36787;SDS011;22738;45.560;9.434;2022-10-22T01:55:11;27.52;;;13.07;;
36787;SDS011;22738;45.560;9.434;2022-10-22T02:09:02;23.17;;;12.35;;
36787;SDS011;22738;45.560;9.434;2022-10-22T02:15:46;25.00;;;13.40;;
36787;SDS011;22738;45.560;9.434;2022-10-22T02:22:31;22.08;;;12.75;;
36787;SDS011;22738;45.560;9.434;2022-10-22T02:29:13;22.95;;;12.13;;
36787;SDS011;22738;45.560;9.434;2022-10-22T02:36:00;22.48;;;11.35;;
36787;SDS011;22738;45.560;9.434;2022-10-22T02:42:42;24.75;;;12.20;;
36787;SDS011;22738;45.560;9.434;2022-10-22T02:49:25;22.85;;;11.30;;
36787;SDS011;22738;45.560;9.434;2022-10-22T02:56:07;19.33;;;11.45;;
36787;SDS011;22738;45.560;9.434;2022-10-22T03:02:48;27.35;;;12.38;;
36787;SDS011;22738;45.560;9.434;2022-10-22T03:09:29;20.92;;;11.70;;
36787;SDS011;22738;45.560;9.434;2022-10-22T03:16:10;22.73;;;11.43;;
36787;SDS011;22738;45.560;9.434;2022-10-22T03:22:51;28.15;;;12.52;;
36787;SDS011;22738;45.560;9.434;2022-10-22T03:29:32;17.83;;;10.82;;
36787;SDS011;22738;45.560;9.434;2022-10-22T03:36:17;19.50;;;11.07;;
36787;SDS011;22738;45.560;9.434;2022-10-22T03:42:58;20.63;;;11.60;;
36787;SDS011;22738;45.560;9.434;2022-10-22T03:49:39;22.20;;;11.35;;
36787;SDS011;22738;45.560;9.434;2022-10-22T03:56:20;29.15;;;12.07;;
36787;SDS011;22738;45.560;9.434;2022-10-22T04:03:01;27.65;;;13.43;;
36787;SDS011;22738;45.560;9.434;2022-10-22T04:09:42;24.70;;;13.93;;
36787;SDS011;22738;45.560;9.434;2022-10-22T04:16:24;25.25;;;13.75;;
36787;SDS011;22738;45.560;9.434;2022-10-22T04:23:13;27.02;;;12.68;;
36787;SDS011;22738;45.560;9.434;2022-10-22T04:29:54;25.85;;;13.02;;
36787;SDS011;22738;45.560;9.434;2022-10-22T04:36:36;27.70;;;13.77;;
36787;SDS011;22738;45.560;9.434;2022-10-22T04:43:18;24.35;;;12.98;;
36787;SDS011;22738;45.560;9.434;2022-10-22T04:49:59;24.38;;;12.55;;
36787;SDS011;22738;45.560;9.434;2022-10-22T04:56:40;23.80;;;11.75;;
36787;SDS011;22738;45.560;9.434;2022-10-22T05:03:23;24.13;;;12.60;;
36787;SDS011;22738;45.560;9.434;2022-10-22T05:10:04;22.17;;;13.03;;
36787;SDS011;22738;45.560;9.434;2022-10-22T05:16:46;30.48;;;14.20;;
36787;SDS011;22738;45.560;9.434;2022-10-22T05:23:27;27.33;;;12.90;;
36787;SDS011;22738;45.560;9.434;2022-10-22T05:30:09;27.85;;;13.75;;
36787;SDS011;22738;45.560;9.434;2022-10-22T05:36:50;28.77;;;14.35;;
36787;SDS011;22738;45.560;9.434;2022-10-22T05:43:36;28.02;;;14.15;;
36787;SDS011;22738;45.560;9.434;2022-10-22T05:50:17;28.63;;;13.25;;
36787;SDS011;22738;45.560;9.434;2022-10-22T05:56:58;27.63;;;14.38;;
36787;SDS011;22738;45.560;9.434;2022-10-22T06:03:40;32.45;;;15.27;;
36787;SDS011;22738;45.560;9.434;2022-10-22T06:10:22;33.15;;;16.00;;
36787;SDS011;22738;45.560;9.434;2022-10-22T06:17:03;31.73;;;14.85;;
36787;SDS011;22738;45.560;9.434;2022-10-22T06:23:44;28.45;;;14.90;;
36787;SDS011;22738;45.560;9.434;2022-10-22T06:30:26;33.55;;;15.05;;
36787;SDS011;22738;45.560;9.434;2022-10-22T06:37:08;31.63;;;14.77;;
36787;SDS011;22738;45.560;9.434;2022-10-22T06:43:50;30.30;;;15.00;;
36787;SDS011;22738;45.560;9.434;2022-10-22T06:50:32;29.92;;;14.55;;
36787;SDS011;22738;45.560;9.434;2022-10-22T06:57:14;25.13;;;12.00;;
36787;SDS011;22738;45.560;9.434;2022-10-22T07:03:55;24.75;;;13.75;;
36787;SDS011;22738;45.560;9.434;2022-10-22T07:10:37;21.75;;;11.77;;
36787;SDS011;22738;45.560;9.434;2022-10-22T07:17:18;26.20;;;12.50;;
36787;SDS011;22738;45.560;9.434;2022-10-22T07:24:04;19.90;;;10.65;;
36787;SDS011;22738;45.560;9.434;2022-10-22T07:30:45;25.35;;;12.85;;
36787;SDS011;22738;45.560;9.434;2022-10-22T07:37:27;22.92;;;12.23;;
36787;SDS011;22738;45.560;9.434;2022-10-22T07:44:08;22.88;;;12.25;;
36787;SDS011;22738;45.560;9.434;2022-10-22T07:50:55;17.85;;;10.82;;
36787;SDS011;22738;45.560;9.434;2022-10-22T07:57:41;18.50;;;9.15;;
36787;SDS011;22738;45.560;9.434;2022-10-22T08:04:22;16.45;;;9.85;;
36787;SDS011;22738;45.560;9.434;2022-10-22T08:11:04;17.63;;;9.55;;
36787;SDS011;22738;45.560;9.434;2022-10-22T08:17:45;17.90;;;10.30;;
36787;SDS011;22738;45.560;9.434;2022-10-22T08:24:26;23.05;;;10.05;;
36787;SDS011;22738;45.560;9.434;2022-10-22T08:31:08;21.85;;;10.48;;
36787;SDS011;22738;45.560;9.434;2022-10-22T08:37:50;20.48;;;10.13;;
36787;SDS011;22738;45.560;9.434;2022-10-22T08:45:07;18.70;;;9.32;;
36787;SDS011;22738;45.560;9.434;2022-10-22T08:51:54;21.85;;;9.70;;
36787;SDS011;22738;45.560;9.434;2022-10-22T08:58:39;21.00;;;9.75;;
36787;SDS011;22738;45.560;9.434;2022-10-22T09:12:15;22.30;;;10.82;;
36787;SDS011;22738;45.560;9.434;2022-10-22T09:26:13;15.02;;;10.07;;
36787;SDS011;22738;45.560;9.434;2022-10-22T09:39:40;17.30;;;9.20;;
36787;SDS011;22738;45.560;9.434;2022-10-22T09:46:28;15.98;;;9.15;;
36787;SDS011;22738;45.560;9.434;2022-10-22T09:53:29;17.02;;;9.38;;
36787;SDS011;22738;45.560;9.434;2022-10-22T10:00:16;15.65;;;8.38;;
36787;SDS011;22738;45.560;9.434;2022-10-22T10:06:58;15.02;;;7.47;;
36787;SDS011;22738;45.560;9.434;2022-10-22T10:41:24;14.07;;;7.00;;
36787;SDS011;22738;45.560;9.434;2022-10-22T10:48:17;14.93;;;7.97;;
36787;SDS011;22738;45.560;9.434;2022-10-22T10:56:08;15.85;;;7.57;;
36787;SDS011;22738;45.560;9.434;2022-10-22T11:09:45;17.45;;;9.60;;
36787;SDS011;22738;45.560;9.434;2022-10-22T11:23:15;18.42;;;10.07;;
36787;SDS011;22738;45.560;9.434;2022-10-22T11:30:03;14.32;;;8.65;;
36787;SDS011;22738;45.560;9.434;2022-10-22T11:36:51;18.83;;;10.70;;
36787;SDS011;22738;45.560;9.434;2022-10-22T11:43:50;16.83;;;9.53;;
36787;SDS011;22738;45.560;9.434;2022-10-22T11:50:58;17.60;;;9.05;;
36787;SDS011;22738;45.560;9.434;2022-10-22T11:57:41;21.38;;;10.80;;
36787;SDS011;22738;45.560;9.434;2022-10-22T12:04:22;22.58;;;11.85;;
36787;SDS011;22738;45.560;9.434;2022-10-22T12:18:14;20.42;;;12.07;;
36787;SDS011;22738;45.560;9.434;2022-10-22T12:25:00;24.40;;;11.90;;
36787;SDS011;22738;45.560;9.434;2022-10-22T12:31:42;19.10;;;10.32;;
36787;SDS011;22738;45.560;9.434;2022-10-22T12:38:24;21.80;;;11.90;;
36787;SDS011;22738;45.560;9.434;2022-10-22T12:45:06;21.42;;;11.45;;
36787;SDS011;22738;45.560;9.434;2022-10-22T12:51:48;19.98;;;11.45;;
36787;SDS011;22738;45.560;9.434;2022-10-22T12:58:33;21.17;;;10.55;;
36787;SDS011;22738;45.560;9.434;2022-10-22T13:05:30;21.90;;;12.60;;
36787;SDS011;22738;45.560;9.434;2022-10-22T13:12:13;24.63;;;13.50;;
36787;SDS011;22738;45.560;9.434;2022-10-22T13:18:58;21.77;;;11.75;;
36787;SDS011;22738;45.560;9.434;2022-10-22T13:25:39;24.45;;;12.88;;
36787;SDS011;22738;45.560;9.434;2022-10-22T13:32:30;24.77;;;12.55;;
36787;SDS011;22738;45.560;9.434;2022-10-22T13:39:23;27.33;;;15.20;;
36787;SDS011;22738;45.560;9.434;2022-10-22T13:46:04;25.92;;;12.85;;
36787;SDS011;22738;45.560;9.434;2022-10-22T13:52:49;25.90;;;14.18;;
36787;SDS011;22738;45.560;9.434;2022-10-22T13:59:33;16.75;;;9.85;;
36787;SDS011;22738;45.560;9.434;2022-10-22T14:06:15;20.70;;;11.18;;
36787;SDS011;22738;45.560;9.434;2022-10-22T14:12:57;26.70;;;13.23;;
36787;SDS011;22738;45.560;9.434;2022-10-22T14:19:38;20.20;;;10.90;;
36787;SDS011;22738;45.560;9.434;2022-10-22T14:26:27;21.33;;;10.70;;
36787;SDS011;22738;45.560;9.434;2022-10-22T14:33:17;22.20;;;11.05;;
36787;SDS011;22738;45.560;9.434;2022-10-22T14:40:02;23.00;;;10.50;;
36787;SDS011;22738;45.560;9.434;2022-10-22T14:46:43;27.80;;;13.63;;
36787;SDS011;22738;45.560;9.434;2022-10-22T14:53:29;24.55;;;12.48;;
36787;SDS011;22738;45.560;9.434;2022-10-22T15:00:11;19.85;;;11.32;;
36787;SDS011;22738;45.560;9.434;2022-10-22T15:06:55;15.40;;;9.82;;
36787;SDS011;22738;45.560;9.434;2022-10-22T15:13:36;27.25;;;13.90;;
36787;SDS011;22738;45.560;9.434;2022-10-22T15:20:18;28.27;;;12.10;;
36787;SDS011;22738;45.560;9.434;2022-10-22T15:27:00;23.63;;;12.10;;
36787;SDS011;22738;45.560;9.434;2022-10-22T15:33:42;26.20;;;14.17;;
36787;SDS011;22738;45.560;9.434;2022-10-22T15:40:23;29.10;;;15.45;;
36787;SDS011;22738;45.560;9.434;2022-10-22T15:47:06;25.05;;;13.93;;
36787;SDS011;22738;45.560;9.434;2022-10-22T15:53:51;26.50;;;13.93;;
36787;SDS011;22738;45.560;9.434;2022-10-22T16:00:33;27.05;;;14.43;;
36787;SDS011;22738;45.560;9.434;2022-10-22T16:07:14;29.15;;;17.23;;
36787;SDS011;22738;45.560;9.434;2022-10-22T16:13:56;27.10;;;14.73;;
36787;SDS011;22738;45.560;9.434;2022-10-22T16:20:39;31.63;;;16.85;;
36787;SDS011;22738;45.560;9.434;2022-10-22T16:27:20;29.27;;;14.00;;
36787;SDS011;22738;45.560;9.434;2022-10-22T16:34:01;22.58;;;13.43;;
36787;SDS011;22738;45.560;9.434;2022-10-22T16:40:42;31.85;;;16.02;;
36787;SDS011;22738;45.560;9.434;2022-10-22T16:47:23;30.55;;;17.00;;
36787;SDS011;22738;45.560;9.434;2022-10-22T16:54:04;27.10;;;14.20;;
36787;SDS011;22738;45.560;9.434;2022-10-22T17:00:45;28.95;;;16.80;;
36787;SDS011;22738;45.560;9.434;2022-10-22T17:07:26;28.15;;;15.18;;
36787;SDS011;22738;45.560;9.434;2022-10-22T17:14:07;27.25;;;14.85;;
36787;SDS011;22738;45.560;9.434;2022-10-22T17:20:49;27.30;;;15.25;;
36787;SDS011;22738;45.560;9.434;2022-10-22T17:27:30;28.63;;;16.55;;
36787;SDS011;22738;45.560;9.434;2022-10-22T17:34:13;29.38;;;15.32;;
36787;SDS011;22738;45.560;9.434;2022-10-22T17:40:56;29.77;;;16.10;;
36787;SDS011;22738;45.560;9.434;2022-10-22T17:47:37;39.97;;;18.65;;
36787;SDS011;22738;45.560;9.434;2022-10-22T17:54:19;37.25;;;18.73;;
36787;SDS011;22738;45.560;9.434;2022-10-22T18:01:01;37.35;;;20.13;;
36787;SDS011;22738;45.560;9.434;2022-10-22T18:07:42;43.10;;;19.15;;
36787;SDS011;22738;45.560;9.434;2022-10-22T18:14:23;32.22;;;18.00;;
36787;SDS011;22738;45.560;9.434;2022-10-22T18:21:04;31.48;;;16.63;;
36787;SDS011;22738;45.560;9.434;2022-10-22T18:27:45;33.47;;;16.70;;
36787;SDS011;22738;45.560;9.434;2022-10-22T18:34:27;28.67;;;15.40;;
36787;SDS011;22738;45.560;9.434;2022-10-22T18:41:12;35.17;;;14.80;;
36787;SDS011;22738;45.560;9.434;2022-10-22T18:47:53;25.98;;;14.00;;
36787;SDS011;22738;45.560;9.434;2022-10-22T18:54:34;19.75;;;11.32;;
36787;SDS011;22738;45.560;9.434;2022-10-22T19:01:21;26.90;;;10.57;;
36787;SDS011;22738;45.560;9.434;2022-10-22T19:08:04;17.05;;;9.88;;
36787;SDS011;22738;45.560;9.434;2022-10-22T19:14:45;18.90;;;10.38;;
36787;SDS011;22738;45.560;9.434;2022-10-22T19:21:26;20.88;;;10.32;;
36787;SDS011;22738;45.560;9.434;2022-10-22T19:28:07;26.85;;;10.85;;
36787;SDS011;22738;45.560;9.434;2022-10-22T19:34:48;18.73;;;10.52;;
36787;SDS011;22738;45.560;9.434;2022-10-22T19:41:30;21.48;;;10.60;;
36787;SDS011;22738;45.560;9.434;2022-10-22T19:48:11;14.82;;;8.85;;
36787;SDS011;22738;45.560;9.434;2022-10-22T19:54:53;17.85;;;8.93;;
36787;SDS011;22738;45.560;9.434;2022-10-22T20:01:34;16.50;;;8.93;;
36787;SDS011;22738;45.560;9.434;2022-10-22T20:08:15;16.45;;;8.95;;
36787;SDS011;22738;45.560;9.434;2022-10-22T20:14:56;18.70;;;10.65;;
36787;SDS011;22738;45.560;9.434;2022-10-22T20:21:38;22.60;;;11.73;;
36787;SDS011;22738;45.560;9.434;2022-10-22T20:28:20;23.27;;;11.05;;
36787;SDS011;22738;45.560;9.434;2022-10-22T20:35:01;26.08;;;12.57;;
36787;SDS011;22738;45.560;9.434;2022-10-22T20:41:42;22.45;;;11.70;;
36787;SDS011;22738;45.560;9.434;2022-10-22T20:48:24;19.67;;;11.82;;
36787;SDS011;22738;45.560;9.434;2022-10-22T20:55:09;22.92;;;12.25;;
36787;SDS011;22738;45.560;9.434;2022-10-22T21:01:51;34.33;;;12.95;;
36787;SDS011;22738;45.560;9.434;2022-10-22T21:08:34;20.30;;;12.35;;
36787;SDS011;22738;45.560;9.434;2022-10-22T21:15:15;29.20;;;12.43;;
36787;SDS011;22738;45.560;9.434;2022-10-22T21:21:56;20.45;;;9.50;;
36787;SDS011;22738;45.560;9.434;2022-10-22T21:28:37;22.00;;;11.65;;
36787;SDS011;22738;45.560;9.434;2022-10-22T21:35:18;22.33;;;11.68;;
36787;SDS011;22738;45.560;9.434;2022-10-22T21:42:00;21.02;;;11.52;;
36787;SDS011;22738;45.560;9.434;2022-10-22T21:48:41;24.73;;;11.88;;
36787;SDS011;22738;45.560;9.434;2022-10-22T21:55:23;20.58;;;11.30;;
36787;SDS011;22738;45.560;9.434;2022-10-22T22:02:04;20.13;;;10.90;;
36787;SDS011;22738;45.560;9.434;2022-10-22T22:08:45;17.15;;;9.75;;
36787;SDS011;22738;45.560;9.434;2022-10-22T22:15:27;16.33;;;9.63;;
36787;SDS011;22738;45.560;9.434;2022-10-22T22:22:08;19.17;;;9.90;;
36787;SDS011;22738;45.560;9.434;2022-10-22T22:28:49;18.83;;;10.45;;
36787;SDS011;22738;45.560;9.434;2022-10-22T22:35:30;16.05;;;8.52;;
36787;SDS011;22738;45.560;9.434;2022-10-22T22:42:11;20.23;;;9.18;;
36787;SDS011;22738;45.560;9.434;2022-10-22T22:48:52;20.08;;;9.82;;
36787;SDS011;22738;45.560;9.434;2022-10-22T22:55:33;14.52;;;8.23;;
36787;SDS011;22738;45.560;9.434;2022-10-22T23:02:14;13.75;;;8.73;;
36787;SDS011;22738;45.560;9.434;2022-10-22T23:08:55;12.75;;;8.35;;
36787;SDS011;22738;45.560;9.434;2022-10-22T23:15:38;15.02;;;8.50;;
36787;SDS011;22738;45.560;9.434;2022-10-22T23:22:19;15.32;;;9.00;;
36787;SDS011;22738;45.560;9.434;2022-10-22T23:29:01;16.02;;;8.15;;
36787;SDS011;22738;45.560;9.434;2022-10-22T23:35:44;15.10;;;8.13;;
36787;SDS011;22738;45.560;9.434;2022-10-22T23:42:27;19.42;;;9.77;;
36787;SDS011;22738;45.560;9.434;2022-10-22T23:49:09;17.33;;;8.93;;
36787;SDS011;22738;45.560;9.434;2022-10-22T23:55:50;20.27;;;9.50;;
